createdAt,value
2022-07-29T00:00:26.957Z,0.00
2022-07-29T00:01:26.934Z,0.00
2022-07-29T00:02:27.026Z,0.00
2022-07-29T00:03:26.932Z,0.00
2022-07-29T00:04:26.999Z,0.00
2022-07-29T00:05:26.879Z,0.00
2022-07-29T00:06:26.878Z,0.00
2022-07-29T00:07:26.855Z,0.00
2022-07-29T00:08:26.866Z,0.00
2022-07-29T00:09:26.825Z,0.00
2022-07-29T00:10:26.816Z,0.00
2022-07-29T00:11:26.795Z,0.00
2022-07-29T00:12:27.086Z,0.00
2022-07-29T00:13:32.448Z,0.00
2022-07-29T00:14:29.781Z,0.00
2022-07-29T00:15:26.745Z,0.00
2022-07-29T00:16:26.787Z,0.00
2022-07-29T00:17:26.733Z,0.00
2022-07-29T00:18:26.710Z,0.00
2022-07-29T00:19:26.734Z,0.00
2022-07-29T00:20:26.680Z,0.00
2022-07-29T00:21:26.664Z,0.00
2022-07-29T00:22:26.651Z,0.00
2022-07-29T00:23:26.635Z,0.00
2022-07-29T00:24:26.633Z,0.00
2022-07-29T00:25:26.640Z,0.00
2022-07-29T00:26:26.642Z,0.00
2022-07-29T00:27:26.581Z,0.00
2022-07-29T00:28:26.574Z,0.00
2022-07-29T00:29:34.839Z,0.00
2022-07-29T00:30:27.563Z,0.00
2022-07-29T00:31:26.579Z,0.00
2022-07-29T00:32:26.515Z,0.00
2022-07-29T00:33:29.503Z,0.00
2022-07-29T00:34:29.506Z,0.00
2022-07-29T00:35:26.535Z,0.00
2022-07-29T00:36:26.469Z,0.00
2022-07-29T00:37:26.447Z,0.00
2022-07-29T00:38:26.435Z,0.00
2022-07-29T00:39:26.415Z,0.00
2022-07-29T00:40:26.413Z,0.00
2022-07-29T00:41:26.417Z,0.00
2022-07-29T00:42:26.380Z,0.00
2022-07-29T00:43:26.358Z,0.00
2022-07-29T00:44:26.351Z,0.00
2022-07-29T00:45:26.339Z,0.00
2022-07-29T00:46:26.370Z,0.00
2022-07-29T00:47:26.310Z,0.00
2022-07-29T00:48:26.322Z,0.00
2022-07-29T00:49:26.307Z,0.00
2022-07-29T00:50:26.262Z,0.00
2022-07-29T00:51:26.282Z,0.00
2022-07-29T00:52:26.243Z,0.00
2022-07-29T00:53:29.232Z,0.00
2022-07-29T00:54:29.234Z,0.00
2022-07-29T00:55:26.203Z,0.00
2022-07-29T00:56:26.233Z,0.00
2022-07-29T00:57:26.182Z,0.00
2022-07-29T00:58:26.164Z,0.00
2022-07-29T00:59:26.145Z,0.00
2022-07-29T01:00:27.172Z,0.00
2022-07-29T01:01:26.147Z,0.00
2022-07-29T01:02:26.218Z,0.00
2022-07-29T01:03:26.117Z,0.00
2022-07-29T01:04:26.076Z,0.00
2022-07-29T01:05:48.081Z,0.00
2022-07-29T01:06:27.050Z,0.00
2022-07-29T01:07:26.056Z,0.00
2022-07-29T01:08:26.018Z,0.00
2022-07-29T01:09:34.474Z,0.00
2022-07-29T01:10:26.999Z,0.00
2022-07-29T01:11:25.978Z,0.00
2022-07-29T01:12:25.987Z,0.00
2022-07-29T01:13:28.978Z,0.00
2022-07-29T01:14:28.958Z,0.00
2022-07-29T01:15:25.931Z,0.00
2022-07-29T01:16:25.954Z,0.00
2022-07-29T01:17:25.899Z,0.00
2022-07-29T01:18:25.911Z,0.00
2022-07-29T01:19:25.873Z,0.00
2022-07-29T01:20:31.523Z,0.00
2022-07-29T01:21:26.841Z,0.00
2022-07-29T01:22:25.833Z,0.00
2022-07-29T01:23:25.845Z,0.00
2022-07-29T01:24:25.832Z,0.00
2022-07-29T01:25:25.791Z,0.00
2022-07-29T01:26:25.793Z,0.00
2022-07-29T01:27:25.762Z,0.00
2022-07-29T01:28:25.753Z,0.00
2022-07-29T01:29:25.805Z,0.00
2022-07-29T01:30:25.740Z,0.00
2022-07-29T01:31:26.544Z,0.00
2022-07-29T01:32:28.685Z,0.00
2022-07-29T01:33:28.676Z,0.00
2022-07-29T01:34:28.734Z,0.00
2022-07-29T01:35:25.646Z,0.00
2022-07-29T01:36:25.638Z,0.00
2022-07-29T01:37:25.626Z,0.00
2022-07-29T01:38:25.616Z,0.00
2022-07-29T01:39:25.600Z,0.00
2022-07-29T01:40:25.647Z,0.00
2022-07-29T01:41:25.568Z,0.00
2022-07-29T01:42:25.562Z,0.00
2022-07-29T01:43:25.542Z,0.00
2022-07-29T01:44:25.531Z,0.00
2022-07-29T01:45:25.511Z,0.00
2022-07-29T01:46:25.624Z,0.00
2022-07-29T01:47:25.497Z,0.00
2022-07-29T01:48:25.470Z,0.00
2022-07-29T01:49:25.509Z,0.00
2022-07-29T01:50:25.449Z,0.00
2022-07-29T01:51:25.460Z,0.00
2022-07-29T01:52:25.423Z,0.00
2022-07-29T01:53:28.404Z,0.00
2022-07-29T01:54:29.510Z,0.00
2022-07-29T01:55:25.374Z,0.00
2022-07-29T01:56:25.420Z,0.00
2022-07-29T01:57:25.355Z,0.00
2022-07-29T01:58:25.334Z,0.00
2022-07-29T01:59:25.324Z,0.00
2022-07-29T02:00:25.336Z,0.00
2022-07-29T02:01:25.346Z,0.00
2022-07-29T02:02:25.313Z,0.00
2022-07-29T02:03:25.271Z,0.00
2022-07-29T02:04:29.603Z,0.00
2022-07-29T02:05:25.327Z,0.00
2022-07-29T02:06:25.224Z,0.00
2022-07-29T02:07:25.255Z,0.00
2022-07-29T02:08:25.207Z,0.00
2022-07-29T02:09:25.187Z,0.00
2022-07-29T02:10:25.916Z,0.00
2022-07-29T02:11:25.158Z,0.00
2022-07-29T02:12:25.146Z,0.00
2022-07-29T02:13:28.186Z,0.00
2022-07-29T02:14:28.129Z,0.00
2022-07-29T02:15:25.109Z,0.00
2022-07-29T02:16:25.150Z,0.00
2022-07-29T02:17:25.079Z,0.00
2022-07-29T02:18:25.077Z,0.00
2022-07-29T02:19:25.078Z,0.00
2022-07-29T02:20:25.031Z,0.00
2022-07-29T02:21:25.021Z,0.00
2022-07-29T02:22:25.046Z,0.00
2022-07-29T02:23:24.993Z,0.00
2022-07-29T02:24:24.982Z,0.00
2022-07-29T02:25:24.971Z,0.00
2022-07-29T02:26:26.003Z,0.00
2022-07-29T02:27:24.952Z,0.00
2022-07-29T02:28:24.925Z,0.00
2022-07-29T02:29:24.916Z,0.00
2022-07-29T02:30:24.898Z,0.00
2022-07-29T02:31:24.949Z,0.00
2022-07-29T02:32:24.894Z,0.00
2022-07-29T02:33:27.858Z,0.00
2022-07-29T02:34:27.859Z,0.00
2022-07-29T02:35:24.834Z,0.00
2022-07-29T02:36:24.819Z,0.00
2022-07-29T02:37:24.827Z,0.00
2022-07-29T02:38:24.818Z,0.00
2022-07-29T02:39:24.776Z,0.00
2022-07-29T02:40:24.787Z,0.00
2022-07-29T02:41:24.747Z,0.00
2022-07-29T02:42:24.760Z,0.00
2022-07-29T02:43:25.696Z,0.00
2022-07-29T02:44:24.711Z,0.00
2022-07-29T02:45:24.693Z,0.00
2022-07-29T02:46:29.385Z,0.00
2022-07-29T02:47:24.700Z,0.00
2022-07-29T02:48:25.413Z,0.00
2022-07-29T02:49:24.706Z,0.00
2022-07-29T02:50:24.621Z,4.00
2022-07-29T02:51:43.343Z,4.00
2022-07-29T02:52:25.621Z,0.00
2022-07-29T02:53:27.584Z,0.00
2022-07-29T02:54:27.585Z,0.00
2022-07-29T02:55:24.560Z,4.00
2022-07-29T02:56:24.543Z,0.00
2022-07-29T02:57:24.594Z,4.00
2022-07-29T02:58:25.496Z,4.00
2022-07-29T02:59:24.523Z,0.00
2022-07-29T03:00:24.494Z,4.00
2022-07-29T03:01:24.535Z,4.00
2022-07-29T03:02:24.466Z,4.00
2022-07-29T03:03:25.954Z,4.00
2022-07-29T03:04:24.450Z,8.00
2022-07-29T03:05:24.417Z,4.00
2022-07-29T03:06:31.078Z,8.00
2022-07-29T03:07:25.425Z,8.00
2022-07-29T03:08:25.146Z,8.00
2022-07-29T03:09:24.387Z,4.00
2022-07-29T03:10:24.383Z,8.00
2022-07-29T03:11:42.366Z,8.00
2022-07-29T03:12:25.348Z,8.00
2022-07-29T03:13:28.075Z,8.00
2022-07-29T03:14:27.336Z,12.00
2022-07-29T03:15:24.869Z,12.00
2022-07-29T03:16:24.294Z,12.00
2022-07-29T03:17:24.290Z,16.00
2022-07-29T03:18:24.999Z,20.00
2022-07-29T03:19:24.263Z,20.00
2022-07-29T03:20:24.213Z,20.00
2022-07-29T03:21:24.191Z,24.00
2022-07-29T03:22:24.201Z,24.00
2022-07-29T03:23:24.947Z,28.00
2022-07-29T03:24:24.172Z,32.00
2022-07-29T03:25:24.162Z,40.00
2022-07-29T03:26:24.122Z,40.00
2022-07-29T03:27:24.134Z,44.00
2022-07-29T03:28:24.864Z,52.00
2022-07-29T03:29:24.137Z,56.00
2022-07-29T03:30:24.065Z,64.00
2022-07-29T03:31:31.627Z,72.00
2022-07-29T03:32:25.300Z,80.00
2022-07-29T03:33:27.796Z,84.00
2022-07-29T03:34:27.070Z,92.00
2022-07-29T03:35:24.029Z,96.00
2022-07-29T03:36:23.979Z,96.00
2022-07-29T03:37:23.970Z,96.00
2022-07-29T03:38:24.720Z,96.00
2022-07-29T03:39:23.965Z,100.00
2022-07-29T03:40:23.964Z,100.00
2022-07-29T03:41:23.959Z,104.00
2022-07-29T03:42:23.910Z,112.00
2022-07-29T03:43:24.664Z,120.00
2022-07-29T03:44:23.893Z,120.00
2022-07-29T03:45:23.860Z,120.00
2022-07-29T03:46:23.902Z,120.00
2022-07-29T03:47:43.670Z,120.00
2022-07-29T03:48:24.822Z,120.00
2022-07-29T03:49:23.933Z,120.00
2022-07-29T03:50:23.787Z,124.00
2022-07-29T03:51:33.379Z,128.00
2022-07-29T03:52:24.782Z,132.00
2022-07-29T03:53:27.516Z,136.00
2022-07-29T03:54:26.768Z,144.00
2022-07-29T03:55:23.723Z,152.00
2022-07-29T03:56:23.710Z,156.00
2022-07-29T03:57:23.718Z,164.00
2022-07-29T03:58:23.668Z,172.00
2022-07-29T03:59:23.683Z,180.00
2022-07-29T04:00:23.647Z,188.00
2022-07-29T04:01:23.663Z,196.00
2022-07-29T04:02:27.334Z,208.00
2022-07-29T04:03:24.638Z,220.00
2022-07-29T04:04:23.635Z,236.00
2022-07-29T04:05:23.577Z,248.00
2022-07-29T04:06:23.559Z,264.00
2022-07-29T04:07:23.567Z,276.00
2022-07-29T04:08:23.537Z,288.00
2022-07-29T04:09:23.518Z,304.00
2022-07-29T04:10:30.230Z,312.00
2022-07-29T04:11:24.490Z,324.00
2022-07-29T04:12:23.500Z,336.00
2022-07-29T04:13:27.234Z,344.00
2022-07-29T04:14:26.514Z,356.00
2022-07-29T04:15:23.446Z,364.00
2022-07-29T04:16:23.479Z,376.00
2022-07-29T04:17:23.431Z,388.00
2022-07-29T04:18:23.391Z,404.00
2022-07-29T04:19:23.383Z,416.00
2022-07-29T04:20:23.390Z,436.00
2022-07-29T04:21:23.355Z,452.00
2022-07-29T04:22:23.341Z,472.00
2022-07-29T04:23:23.323Z,496.00
2022-07-29T04:24:23.313Z,524.00
2022-07-29T04:25:23.324Z,552.00
2022-07-29T04:26:23.282Z,580.00
2022-07-29T04:27:23.310Z,616.00
2022-07-29T04:28:23.257Z,652.00
2022-07-29T04:29:23.253Z,688.00
2022-07-29T04:30:23.268Z,740.00
2022-07-29T04:31:25.917Z,816.00
2022-07-29T04:32:23.287Z,932.00
2022-07-29T04:33:26.194Z,1056.00
2022-07-29T04:34:28.227Z,1828.00
2022-07-29T04:35:23.164Z,3708.00
2022-07-29T04:36:29.219Z,3668.00
2022-07-29T04:37:24.169Z,1832.00
2022-07-29T04:38:23.117Z,1252.00
2022-07-29T04:39:23.433Z,1056.00
2022-07-29T04:40:23.097Z,992.00
2022-07-29T04:41:23.157Z,956.00
2022-07-29T04:42:27.844Z,924.00
2022-07-29T04:43:24.064Z,888.00
2022-07-29T04:44:27.655Z,852.00
2022-07-29T04:45:24.050Z,820.00
2022-07-29T04:46:23.078Z,792.00
2022-07-29T04:47:23.025Z,772.00
2022-07-29T04:48:28.212Z,764.00
2022-07-29T04:49:24.019Z,764.00
2022-07-29T04:50:22.961Z,768.00
2022-07-29T04:51:22.987Z,784.00
2022-07-29T04:52:22.929Z,808.00
2022-07-29T04:53:25.964Z,828.00
2022-07-29T04:54:25.918Z,856.00
2022-07-29T04:55:22.903Z,880.00
2022-07-29T04:56:22.919Z,912.00
2022-07-29T04:57:22.893Z,944.00
2022-07-29T04:58:22.867Z,964.00
2022-07-29T04:59:22.842Z,984.00
2022-07-29T05:00:22.815Z,996.00
2022-07-29T05:01:23.856Z,1004.00
2022-07-29T05:02:22.915Z,1016.00
2022-07-29T05:03:22.785Z,1024.00
2022-07-29T05:04:22.763Z,1032.00
2022-07-29T05:05:22.766Z,1036.00
2022-07-29T05:06:22.736Z,1044.00
2022-07-29T05:07:22.746Z,1052.00
2022-07-29T05:08:22.769Z,1064.00
2022-07-29T05:09:22.708Z,1072.00
2022-07-29T05:10:22.678Z,1080.00
2022-07-29T05:11:27.226Z,1088.00
2022-07-29T05:12:23.660Z,1100.00
2022-07-29T05:13:25.698Z,1120.00
2022-07-29T05:14:25.650Z,1136.00
2022-07-29T05:15:22.621Z,1164.00
2022-07-29T05:16:22.713Z,1196.00
2022-07-29T05:17:22.636Z,1232.00
2022-07-29T05:18:22.574Z,1276.00
2022-07-29T05:19:22.611Z,1336.00
2022-07-29T05:20:22.581Z,1404.00
2022-07-29T05:21:22.541Z,1472.00
2022-07-29T05:22:22.519Z,1516.00
2022-07-29T05:23:22.527Z,1580.00
2022-07-29T05:24:22.490Z,1640.00
2022-07-29T05:25:22.496Z,1700.00
2022-07-29T05:26:22.496Z,1752.00
2022-07-29T05:27:22.462Z,1792.00
2022-07-29T05:28:22.443Z,1820.00
2022-07-29T05:29:43.122Z,1844.00
2022-07-29T05:30:23.413Z,1864.00
2022-07-29T05:31:22.488Z,1888.00
2022-07-29T05:32:22.384Z,1912.00
2022-07-29T05:33:35.865Z,1928.00
2022-07-29T05:34:26.378Z,1960.00
2022-07-29T05:35:22.346Z,1988.00
2022-07-29T05:36:22.380Z,2024.00
2022-07-29T05:37:22.324Z,2056.00
2022-07-29T05:38:22.309Z,2092.00
2022-07-29T05:39:22.289Z,2128.00
2022-07-29T05:40:23.295Z,2156.00
2022-07-29T05:41:22.283Z,2176.00
2022-07-29T05:42:22.280Z,2196.00
2022-07-29T05:43:22.249Z,2208.00
2022-07-29T05:44:22.245Z,2216.00
2022-07-29T05:45:22.214Z,2228.00
2022-07-29T05:46:22.244Z,2236.00
2022-07-29T05:47:22.219Z,2244.00
2022-07-29T05:48:22.162Z,2256.00
2022-07-29T05:49:26.943Z,2272.00
2022-07-29T05:50:23.140Z,2276.00
2022-07-29T05:51:22.148Z,2292.00
2022-07-29T05:52:22.137Z,2316.00
2022-07-29T05:53:25.124Z,2352.00
2022-07-29T05:54:25.154Z,2372.00
2022-07-29T05:55:22.075Z,2380.00
2022-07-29T05:56:22.064Z,2400.00
2022-07-29T05:57:22.087Z,2420.00
2022-07-29T05:58:22.028Z,2440.00
2022-07-29T05:59:22.836Z,2460.00
2022-07-29T06:00:22.077Z,2484.00
2022-07-29T06:01:22.050Z,2496.00
2022-07-29T06:02:21.985Z,2520.00
2022-07-29T06:03:21.967Z,2532.00
2022-07-29T06:04:21.983Z,2544.00
2022-07-29T06:05:21.939Z,2564.00
2022-07-29T06:06:21.988Z,2576.00
2022-07-29T06:07:21.910Z,2600.00
2022-07-29T06:08:21.897Z,2624.00
2022-07-29T06:09:21.891Z,2648.00
2022-07-29T06:10:23.844Z,2676.00
2022-07-29T06:11:21.861Z,2712.00
2022-07-29T06:12:21.874Z,2752.00
2022-07-29T06:13:24.828Z,2800.00
2022-07-29T06:14:24.822Z,2852.00
2022-07-29T06:15:21.820Z,2912.00
2022-07-29T06:16:29.915Z,2976.00
2022-07-29T06:17:22.782Z,3056.00
2022-07-29T06:18:21.758Z,3140.00
2022-07-29T06:19:21.743Z,3236.00
2022-07-29T06:20:27.062Z,3364.00
2022-07-29T06:21:22.763Z,3516.00
2022-07-29T06:22:21.708Z,3676.00
2022-07-29T06:23:21.696Z,4060.00
2022-07-29T06:24:21.679Z,4240.00
2022-07-29T06:25:21.664Z,4408.00
2022-07-29T06:26:30.731Z,4436.00
2022-07-29T06:27:22.655Z,4600.00
2022-07-29T06:28:21.614Z,4588.00
2022-07-29T06:29:21.606Z,4648.00
2022-07-29T06:30:21.602Z,4740.00
2022-07-29T06:31:21.625Z,5016.00
2022-07-29T06:32:22.969Z,5116.00
2022-07-29T06:33:25.566Z,5188.00
2022-07-29T06:34:24.558Z,5508.00
2022-07-29T06:35:41.239Z,5712.00
2022-07-29T06:36:22.946Z,5684.00
2022-07-29T06:37:21.496Z,5616.00
2022-07-29T06:38:33.807Z,5620.00
2022-07-29T06:39:22.469Z,5640.00
2022-07-29T06:40:21.465Z,5668.00
2022-07-29T06:41:21.442Z,5676.00
2022-07-29T06:42:21.438Z,5772.00
2022-07-29T06:43:21.452Z,6072.00
2022-07-29T06:44:21.411Z,6240.00
2022-07-29T06:45:21.389Z,6260.00
2022-07-29T06:46:21.509Z,5940.00
2022-07-29T06:47:21.390Z,5828.00
2022-07-29T06:48:21.382Z,5872.00
2022-07-29T06:49:21.410Z,5764.00
2022-07-29T06:50:22.140Z,5728.00
2022-07-29T06:51:23.401Z,5560.00
2022-07-29T06:52:21.294Z,5484.00
2022-07-29T06:53:24.305Z,5436.00
2022-07-29T06:54:24.366Z,5396.00
2022-07-29T06:55:25.119Z,5344.00
2022-07-29T06:56:21.259Z,5308.00
2022-07-29T06:57:21.227Z,5284.00
2022-07-29T06:58:21.224Z,5268.00
2022-07-29T06:59:28.358Z,5268.00
2022-07-29T07:00:22.199Z,5264.00
2022-07-29T07:01:21.269Z,5296.00
2022-07-29T07:02:21.250Z,5272.00
2022-07-29T07:03:21.144Z,5256.00
2022-07-29T07:04:21.450Z,5256.00
2022-07-29T07:05:21.129Z,5276.00
2022-07-29T07:06:21.101Z,5304.00
2022-07-29T07:07:21.120Z,5332.00
2022-07-29T07:08:21.079Z,5348.00
2022-07-29T07:09:21.631Z,5340.00
2022-07-29T07:10:21.060Z,5344.00
2022-07-29T07:11:21.062Z,5352.00
2022-07-29T07:12:21.029Z,5356.00
2022-07-29T07:13:24.022Z,5380.00
2022-07-29T07:14:24.047Z,5420.00
2022-07-29T07:15:21.005Z,5468.00
2022-07-29T07:16:21.036Z,5516.00
2022-07-29T07:17:20.963Z,5560.00
2022-07-29T07:18:20.944Z,5612.00
2022-07-29T07:19:20.994Z,5640.00
2022-07-29T07:20:20.934Z,5672.00
2022-07-29T07:21:20.894Z,5708.00
2022-07-29T07:22:20.894Z,5760.00
2022-07-29T07:23:20.900Z,5800.00
2022-07-29T07:24:20.855Z,5836.00
2022-07-29T07:25:20.866Z,5852.00
2022-07-29T07:26:20.888Z,5852.00
2022-07-29T07:27:20.828Z,5860.00
2022-07-29T07:28:24.946Z,5860.00
2022-07-29T07:29:20.787Z,5856.00
2022-07-29T07:30:20.798Z,5860.00
2022-07-29T07:31:20.808Z,5852.00
2022-07-29T07:32:20.880Z,5856.00
2022-07-29T07:33:23.728Z,5860.00
2022-07-29T07:34:28.371Z,5880.00
2022-07-29T07:35:21.701Z,5900.00
2022-07-29T07:36:20.721Z,5924.00
2022-07-29T07:37:20.701Z,5948.00
2022-07-29T07:38:20.672Z,5980.00
2022-07-29T07:39:20.651Z,6008.00
2022-07-29T07:40:20.675Z,6044.00
2022-07-29T07:41:20.621Z,6100.00
2022-07-29T07:42:20.620Z,6136.00
2022-07-29T07:43:20.602Z,6188.00
2022-07-29T07:44:21.010Z,6248.00
2022-07-29T07:45:20.594Z,6308.00
2022-07-29T07:46:20.618Z,6356.00
2022-07-29T07:47:20.548Z,6420.00
2022-07-29T07:48:20.542Z,6488.00
2022-07-29T07:49:20.610Z,6544.00
2022-07-29T07:50:20.514Z,6588.00
2022-07-29T07:51:20.486Z,6648.00
2022-07-29T07:52:20.477Z,6692.00
2022-07-29T07:53:23.457Z,6780.00
2022-07-29T07:54:23.490Z,6892.00
2022-07-29T07:55:20.437Z,6980.00
2022-07-29T07:56:20.419Z,7008.00
2022-07-29T07:57:20.407Z,7040.00
2022-07-29T07:58:20.397Z,6956.00
2022-07-29T07:59:20.430Z,6892.00
2022-07-29T08:00:23.619Z,6760.00
2022-07-29T08:01:20.392Z,6708.00
2022-07-29T08:02:20.504Z,6672.00
2022-07-29T08:03:20.330Z,6636.00
2022-07-29T08:04:26.656Z,6584.00
2022-07-29T08:05:21.341Z,6524.00
2022-07-29T08:06:20.338Z,6468.00
2022-07-29T08:07:20.314Z,6416.00
2022-07-29T08:08:20.276Z,6364.00
2022-07-29T08:09:29.279Z,6300.00
2022-07-29T08:10:21.280Z,6288.00
2022-07-29T08:11:20.241Z,6244.00
2022-07-29T08:12:20.214Z,6208.00
2022-07-29T08:13:23.205Z,6216.00
2022-07-29T08:14:23.206Z,6256.00
2022-07-29T08:15:20.206Z,6276.00
2022-07-29T08:16:20.218Z,6244.00
2022-07-29T08:17:20.154Z,6160.00
2022-07-29T08:18:20.147Z,6196.00
2022-07-29T08:19:20.117Z,6220.00
2022-07-29T08:20:20.171Z,6268.00
2022-07-29T08:21:20.125Z,6336.00
2022-07-29T08:22:20.122Z,6396.00
2022-07-29T08:23:20.079Z,6588.00
2022-07-29T08:24:20.062Z,6756.00
2022-07-29T08:25:20.050Z,6824.00
2022-07-29T08:26:20.059Z,6756.00
2022-07-29T08:27:41.722Z,6796.00
2022-07-29T08:28:21.041Z,6860.00
2022-07-29T08:29:20.993Z,6784.00
2022-07-29T08:30:20.021Z,6752.00
2022-07-29T08:31:20.010Z,6704.00
2022-07-29T08:32:43.463Z,6648.00
2022-07-29T08:33:23.924Z,6612.00
2022-07-29T08:34:24.429Z,6652.00
2022-07-29T08:35:20.914Z,6620.00
2022-07-29T08:36:19.906Z,6672.00
2022-07-29T08:37:19.902Z,6976.00
2022-07-29T08:38:19.866Z,7064.00
2022-07-29T08:39:19.846Z,6980.00
2022-07-29T08:40:19.911Z,7148.00
2022-07-29T08:41:20.842Z,7020.00
2022-07-29T08:42:19.837Z,6816.00
2022-07-29T08:43:19.796Z,6612.00
2022-07-29T08:44:26.555Z,6624.00
2022-07-29T08:45:20.772Z,6928.00
2022-07-29T08:46:19.787Z,7000.00
2022-07-29T08:47:19.737Z,7012.00
2022-07-29T08:48:19.732Z,7212.00
2022-07-29T08:49:19.748Z,7356.00
2022-07-29T08:50:19.720Z,7520.00
2022-07-29T08:51:19.683Z,7808.00
2022-07-29T08:52:19.670Z,7856.00
2022-07-29T08:53:22.702Z,7852.00
2022-07-29T08:54:22.652Z,7844.00
2022-07-29T08:55:19.730Z,7448.00
2022-07-29T08:56:19.646Z,7580.00
2022-07-29T08:57:19.603Z,7828.00
2022-07-29T08:58:20.402Z,7748.00
2022-07-29T08:59:19.605Z,7532.00
2022-07-29T09:00:19.605Z,7600.00
2022-07-29T09:01:19.697Z,7128.00
2022-07-29T09:02:19.537Z,6804.00
2022-07-29T09:03:19.571Z,6712.00
2022-07-29T09:04:19.529Z,6820.00
2022-07-29T09:05:19.489Z,6760.00
2022-07-29T09:06:19.483Z,6840.00
2022-07-29T09:07:19.457Z,6728.00
2022-07-29T09:08:19.449Z,6852.00
2022-07-29T09:09:19.498Z,7204.00
2022-07-29T09:10:19.455Z,7120.00
2022-07-29T09:11:19.410Z,7216.00
2022-07-29T09:12:28.850Z,7192.00
2022-07-29T09:13:23.381Z,7796.00
2022-07-29T09:14:22.414Z,7340.00
2022-07-29T09:15:19.361Z,7272.00
2022-07-29T09:16:43.818Z,7416.00
2022-07-29T09:17:20.362Z,7676.00
2022-07-29T09:18:30.342Z,7468.00
2022-07-29T09:19:20.323Z,7544.00
2022-07-29T09:20:19.326Z,7328.00
2022-07-29T09:21:19.285Z,7292.00
2022-07-29T09:22:19.255Z,6996.00
2022-07-29T09:23:23.966Z,7268.00
2022-07-29T09:24:20.246Z,7692.00
2022-07-29T09:25:19.226Z,7796.00
2022-07-29T09:26:19.237Z,7852.00
2022-07-29T09:27:19.209Z,7860.00
2022-07-29T09:28:19.193Z,7852.00
2022-07-29T09:29:19.171Z,7740.00
2022-07-29T09:30:30.346Z,7712.00
2022-07-29T09:31:20.181Z,6956.00
2022-07-29T09:32:26.646Z,7164.00
2022-07-29T09:33:22.131Z,6572.00
2022-07-29T09:34:22.117Z,6384.00
2022-07-29T09:35:19.089Z,6172.00
2022-07-29T09:36:19.109Z,6088.00
2022-07-29T09:37:19.059Z,5936.00
2022-07-29T09:38:19.048Z,5920.00
2022-07-29T09:39:19.034Z,5964.00
2022-07-29T09:40:19.023Z,5980.00
2022-07-29T09:41:19.037Z,6320.00
2022-07-29T09:42:18.990Z,6272.00
2022-07-29T09:43:18.990Z,6260.00
2022-07-29T09:44:18.972Z,6404.00
2022-07-29T09:45:18.951Z,6468.00
2022-07-29T09:46:18.999Z,6184.00
2022-07-29T09:47:18.933Z,6120.00
2022-07-29T09:48:18.914Z,5904.00
2022-07-29T09:49:18.976Z,6228.00
2022-07-29T09:50:18.891Z,6164.00
2022-07-29T09:51:21.421Z,6220.00
2022-07-29T09:52:18.865Z,6588.00
2022-07-29T09:53:22.117Z,6500.00
2022-07-29T09:54:21.846Z,6272.00
2022-07-29T09:55:19.925Z,6184.00
2022-07-29T09:56:18.841Z,6320.00
2022-07-29T09:57:18.790Z,6532.00
2022-07-29T09:58:18.780Z,6476.00
2022-07-29T09:59:18.769Z,6736.00
2022-07-29T10:00:18.766Z,6816.00
2022-07-29T10:01:18.789Z,7092.00
2022-07-29T10:02:23.483Z,7336.00
2022-07-29T10:03:18.784Z,7312.00
2022-07-29T10:04:18.701Z,7676.00
2022-07-29T10:05:18.711Z,7728.00
2022-07-29T10:06:18.692Z,7840.00
2022-07-29T10:07:18.683Z,7908.00
2022-07-29T10:08:18.647Z,7940.00
2022-07-29T10:09:18.643Z,8032.00
2022-07-29T10:10:18.625Z,8172.00
2022-07-29T10:11:18.658Z,7928.00
2022-07-29T10:12:18.614Z,7640.00
2022-07-29T10:13:21.626Z,7620.00
2022-07-29T10:14:21.576Z,7732.00
2022-07-29T10:15:18.543Z,7512.00
2022-07-29T10:16:18.650Z,7656.00
2022-07-29T10:17:18.517Z,7356.00
2022-07-29T10:18:18.706Z,7580.00
2022-07-29T10:19:18.496Z,7724.00
2022-07-29T10:20:18.481Z,7432.00
2022-07-29T10:21:34.464Z,7020.00
2022-07-29T10:22:43.640Z,7364.00
2022-07-29T10:23:19.478Z,7424.00
2022-07-29T10:24:18.421Z,7200.00
2022-07-29T10:25:18.412Z,7376.00
2022-07-29T10:26:18.399Z,7080.00
2022-07-29T10:27:18.391Z,7124.00
2022-07-29T10:28:18.374Z,7276.00
2022-07-29T10:29:18.393Z,7264.00
2022-07-29T10:30:18.344Z,7152.00
2022-07-29T10:31:18.415Z,6984.00
2022-07-29T10:32:18.325Z,7000.00
2022-07-29T10:33:21.337Z,7076.00
2022-07-29T10:34:21.307Z,7252.00
2022-07-29T10:35:18.285Z,7256.00
2022-07-29T10:36:18.613Z,7148.00
2022-07-29T10:37:18.247Z,7044.00
2022-07-29T10:38:18.305Z,7164.00
2022-07-29T10:39:18.228Z,6948.00
2022-07-29T10:40:18.227Z,6784.00
2022-07-29T10:41:19.469Z,6636.00
2022-07-29T10:42:20.075Z,6492.00
2022-07-29T10:43:18.170Z,6268.00
2022-07-29T10:44:19.346Z,6468.00
2022-07-29T10:45:18.156Z,6856.00
2022-07-29T10:46:18.220Z,6772.00
2022-07-29T10:47:18.122Z,6684.00
2022-07-29T10:48:18.102Z,6640.00
2022-07-29T10:49:18.256Z,6372.00
2022-07-29T10:50:18.151Z,6372.00
2022-07-29T10:51:18.080Z,6576.00
2022-07-29T10:52:18.075Z,6364.00
2022-07-29T10:53:21.053Z,6676.00
2022-07-29T10:54:21.037Z,6596.00
2022-07-29T10:55:18.035Z,6596.00
2022-07-29T10:56:17.997Z,6260.00
2022-07-29T10:57:17.992Z,6244.00
2022-07-29T10:58:18.873Z,6072.00
2022-07-29T10:59:17.967Z,6312.00
2022-07-29T11:00:17.968Z,6128.00
2022-07-29T11:01:22.725Z,6252.00
2022-07-29T11:02:41.099Z,5888.00
2022-07-29T11:03:18.945Z,6272.00
2022-07-29T11:04:17.893Z,6032.00
2022-07-29T11:05:17.903Z,6236.00
2022-07-29T11:06:18.031Z,6268.00
2022-07-29T11:07:18.854Z,6316.00
2022-07-29T11:08:20.377Z,6184.00
2022-07-29T11:09:19.932Z,6244.00
2022-07-29T11:10:17.813Z,6356.00
2022-07-29T11:11:17.804Z,6368.00
2022-07-29T11:12:17.792Z,6348.00
2022-07-29T11:13:20.794Z,6328.00
2022-07-29T11:14:26.601Z,6288.00
2022-07-29T11:15:18.748Z,6280.00
2022-07-29T11:16:17.726Z,6256.00
2022-07-29T11:17:17.716Z,6212.00
2022-07-29T11:18:17.727Z,6168.00
2022-07-29T11:19:26.394Z,6116.00
2022-07-29T11:20:18.727Z,6080.00
2022-07-29T11:21:17.668Z,6044.00
2022-07-29T11:22:18.649Z,6048.00
2022-07-29T11:23:18.642Z,6060.00
2022-07-29T11:24:18.686Z,6052.00
2022-07-29T11:25:18.630Z,5980.00
2022-07-29T11:26:18.541Z,6032.00
2022-07-29T11:27:18.340Z,5976.00
2022-07-29T11:28:22.807Z,5912.00
2022-07-29T11:29:18.566Z,5848.00
2022-07-29T11:30:17.578Z,5840.00
2022-07-29T11:31:18.720Z,5840.00
2022-07-29T11:32:18.321Z,5772.00
2022-07-29T11:33:21.505Z,5852.00
2022-07-29T11:34:21.497Z,5056.00
2022-07-29T11:35:18.878Z,5336.00
2022-07-29T11:36:17.463Z,5192.00
2022-07-29T11:37:17.784Z,5128.00
2022-07-29T11:38:17.429Z,5360.00
2022-07-29T11:39:19.380Z,5212.00
2022-07-29T11:40:17.415Z,5128.00
2022-07-29T11:41:17.421Z,4940.00
2022-07-29T11:42:17.462Z,4952.00
2022-07-29T11:43:18.391Z,5212.00
2022-07-29T11:44:18.224Z,5304.00
2022-07-29T11:45:41.886Z,5264.00
2022-07-29T11:46:18.333Z,5248.00
2022-07-29T11:47:18.408Z,5008.00
2022-07-29T11:48:29.012Z,5024.00
2022-07-29T11:49:18.330Z,4908.00
2022-07-29T11:50:17.276Z,4748.00
2022-07-29T11:51:17.268Z,4132.00
2022-07-29T11:52:17.246Z,4332.00
2022-07-29T11:53:20.286Z,4208.00
2022-07-29T11:54:20.252Z,4232.00
2022-07-29T11:55:18.219Z,3960.00
2022-07-29T11:56:17.287Z,3928.00
2022-07-29T11:57:17.182Z,4172.00
2022-07-29T11:58:17.176Z,4224.00
2022-07-29T11:59:17.774Z,4100.00
2022-07-29T12:01:18.143Z,3912.00
2022-07-29T12:03:18.132Z,4348.00
2022-07-29T12:04:17.113Z,5020.00
2022-07-29T12:05:36.370Z,5268.00
2022-07-29T12:06:20.909Z,5124.00
2022-07-29T12:07:17.065Z,4336.00
2022-07-29T12:08:17.075Z,4512.00
2022-07-29T12:09:17.044Z,4520.00
2022-07-29T12:10:20.168Z,4628.00
2022-07-29T12:11:18.011Z,4640.00
2022-07-29T12:12:16.996Z,4588.00
2022-07-29T12:13:19.976Z,4616.00
2022-07-29T12:14:19.995Z,4592.00
2022-07-29T12:15:16.946Z,4760.00
2022-07-29T12:16:27.895Z,4692.00
2022-07-29T12:17:17.920Z,5216.00
2022-07-29T12:18:18.456Z,5080.00
2022-07-29T12:19:16.928Z,5256.00
2022-07-29T12:20:16.870Z,5108.00
2022-07-29T12:21:16.861Z,5196.00
2022-07-29T12:22:16.855Z,5072.00
2022-07-29T12:23:16.831Z,5108.00
2022-07-29T12:24:16.882Z,5080.00
2022-07-29T12:25:33.091Z,5116.00
2022-07-29T12:26:25.282Z,5212.00
2022-07-29T12:27:17.795Z,5336.00
2022-07-29T12:28:26.699Z,5448.00
2022-07-29T12:29:20.162Z,5528.00